الصفحة الرئيسية
METAR-TAF:

METAR-TAF

مطار :

تشيليابينسك, روسيا

دائرة عرض: 55-10N, خط طول: 061-24E, ارتفاع: 234 متر

مراقبة الطقس الحالي

تاريخ ووقت الإصدار 28 دقيقة قبل الساعة 14:00UTC
ريح 4 عقدة من الشرق/الجنوب الشرقي
درجة الحرارة -7°درجة مئوية
الرطوبة 100%
ضغط 1028 hPa
الرؤية: 0800 متر
ضباب مجمِّد

METAR: USCC 141400Z 12002MPS 1500 0800E R27/1800N FZFG VV002 M07/M07 Q1028 R27/190055 TEMPO 0300 FZFG VV001 RMK QBB060 QFE751

زمن: 19:28 (14:28 UTC)

توقعات

تاريخ ووقت الإصدار 1ساعة و 43 دقيقة قبل الساعة 12:45UTC
التوقعات صالحة من14 الساعة 12 UTC إلى 15 الساعة 12 UTC
ريح 6 عقدة من الجنوب الشرقي
الرؤية: 3100 متر
غيوم مفككة على ارتفاع 500 قدم
غشاء
مؤقت
من 14 الساعة 12 UTC إلى 15 الساعة 06 UTC
ريح 6 عقدة من الجنوب/الجنوب الغربي تتزايد حتى 16 عقدة
الرؤية: 0300 متر
على ارتفاع 200 قدم
ثلوج خفيفة, ضباب مجمِّد
أصبح
من 15 الساعة 06 UTC إلى 15 الساعة 08 UTC
غيوم مفككة على ارتفاع 1100 قدم

TAF: USCC 141245Z 1412/1512 14003MPS 3100 BR BKN005 TEMPO 1412/1506 20003G08MPS 0300 -SN FZFG VV002 BECMG 1506/1508 BKN011

أرصاد الطقس والتوقعات من أكثر من 4000 مطار (تقارير الطقس للمطار METAR والتنبؤ بالطقس بالمطارTAF).

المحطات المتاحة هي النقط الصفراء والحمراء على الخريطة.

حرك المؤشر فوق النقطة لمعرفة اسم المحطة.

ثم انقر لمعرفة أرصاد وتوقعات الطقس.

لتغيير الخارطة: اضغط على الأزرار الخضراء مع رمز الصليب الأسود للتكبير. على الزر الأخضر مع شرطة للتصغير، أو على الأسهم الخضراء للخرائط المجاورة.


METAR-TAF: